sensor_id;sensor_type;location;lat;lon;timestamp;P1;durP1;ratioP1;P2;durP2;ratioP2
19004;SDS011;9635;52.078;8.648;2022-08-30T00:00:26;3.10;;;2.00;;
19004;SDS011;9635;52.078;8.648;2022-08-30T00:05:46;1.98;;;1.77;;
19004;SDS011;9635;52.078;8.648;2022-08-30T00:10:51;1.77;;;1.67;;
19004;SDS011;9635;52.078;8.648;2022-08-30T00:15:54;2.70;;;2.08;;
19004;SDS011;9635;52.078;8.648;2022-08-30T00:20:57;6.55;;;2.10;;
19004;SDS011;9635;52.078;8.648;2022-08-30T00:26:02;2.22;;;1.83;;
19004;SDS011;9635;52.078;8.648;2022-08-30T00:31:06;2.00;;;1.75;;
19004;SDS011;9635;52.078;8.648;2022-08-30T00:36:09;3.58;;;1.83;;
19004;SDS011;9635;52.078;8.648;2022-08-30T00:41:13;2.92;;;2.00;;
19004;SDS011;9635;52.078;8.648;2022-08-30T00:46:16;4.43;;;1.70;;
19004;SDS011;9635;52.078;8.648;2022-08-30T00:51:19;3.63;;;2.17;;
19004;SDS011;9635;52.078;8.648;2022-08-30T00:56:25;2.38;;;2.10;;
19004;SDS011;9635;52.078;8.648;2022-08-30T01:01:30;2.72;;;1.95;;
19004;SDS011;9635;52.078;8.648;2022-08-30T01:06:35;2.40;;;2.20;;
19004;SDS011;9635;52.078;8.648;2022-08-30T01:11:41;2.10;;;1.95;;
19004;SDS011;9635;52.078;8.648;2022-08-30T01:16:45;3.88;;;2.20;;
19004;SDS011;9635;52.078;8.648;2022-08-30T01:21:49;3.25;;;2.20;;
19004;SDS011;9635;52.078;8.648;2022-08-30T01:26:58;2.22;;;1.90;;
19004;SDS011;9635;52.078;8.648;2022-08-30T01:32:01;3.28;;;1.95;;
19004;SDS011;9635;52.078;8.648;2022-08-30T01:37:06;2.70;;;2.40;;
19004;SDS011;9635;52.078;8.648;2022-08-30T01:42:10;9.95;;;3.25;;
19004;SDS011;9635;52.078;8.648;2022-08-30T01:47:14;3.80;;;2.05;;
19004;SDS011;9635;52.078;8.648;2022-08-30T01:52:18;2.47;;;2.28;;
19004;SDS011;9635;52.078;8.648;2022-08-30T01:57:22;3.00;;;2.38;;
19004;SDS011;9635;52.078;8.648;2022-08-30T02:02:27;2.55;;;2.30;;
19004;SDS011;9635;52.078;8.648;2022-08-30T02:07:31;2.35;;;2.15;;
19004;SDS011;9635;52.078;8.648;2022-08-30T02:12:35;2.83;;;2.20;;
19004;SDS011;9635;52.078;8.648;2022-08-30T02:17:38;2.85;;;2.47;;
19004;SDS011;9635;52.078;8.648;2022-08-30T02:22:42;2.40;;;2.20;;
19004;SDS011;9635;52.078;8.648;2022-08-30T02:27:51;2.97;;;2.10;;
19004;SDS011;9635;52.078;8.648;2022-08-30T02:32:55;2.42;;;2.28;;
19004;SDS011;9635;52.078;8.648;2022-08-30T02:37:58;3.20;;;2.17;;
19004;SDS011;9635;52.078;8.648;2022-08-30T02:43:02;4.20;;;2.55;;
19004;SDS011;9635;52.078;8.648;2022-08-30T02:48:05;3.88;;;2.13;;
19004;SDS011;9635;52.078;8.648;2022-08-30T02:53:08;4.53;;;2.65;;
19004;SDS011;9635;52.078;8.648;2022-08-30T02:58:17;4.05;;;2.78;;
19004;SDS011;9635;52.078;8.648;2022-08-30T03:03:20;3.38;;;2.70;;
19004;SDS011;9635;52.078;8.648;2022-08-30T03:08:24;2.65;;;2.38;;
19004;SDS011;9635;52.078;8.648;2022-08-30T03:13:28;2.25;;;2.10;;
19004;SDS011;9635;52.078;8.648;2022-08-30T03:18:31;2.75;;;2.53;;
19004;SDS011;9635;52.078;8.648;2022-08-30T03:23:34;3.03;;;2.75;;
19004;SDS011;9635;52.078;8.648;2022-08-30T03:28:39;3.33;;;2.75;;
19004;SDS011;9635;52.078;8.648;2022-08-30T03:33:42;3.83;;;3.10;;
19004;SDS011;9635;52.078;8.648;2022-08-30T03:38:45;4.43;;;3.13;;
19004;SDS011;9635;52.078;8.648;2022-08-30T03:43:50;3.30;;;2.97;;
19004;SDS011;9635;52.078;8.648;2022-08-30T03:49:00;4.97;;;2.80;;
19004;SDS011;9635;52.078;8.648;2022-08-30T03:54:02;4.10;;;3.08;;
19004;SDS011;9635;52.078;8.648;2022-08-30T03:59:07;3.70;;;3.28;;
19004;SDS011;9635;52.078;8.648;2022-08-30T04:04:10;6.05;;;3.50;;
19004;SDS011;9635;52.078;8.648;2022-08-30T04:09:19;3.38;;;3.08;;
19004;SDS011;9635;52.078;8.648;2022-08-30T04:14:23;3.42;;;3.10;;
19004;SDS011;9635;52.078;8.648;2022-08-30T04:19:26;3.55;;;3.10;;
19004;SDS011;9635;52.078;8.648;2022-08-30T04:24:28;4.80;;;3.72;;
19004;SDS011;9635;52.078;8.648;2022-08-30T04:29:33;4.30;;;3.20;;
19004;SDS011;9635;52.078;8.648;2022-08-30T04:34:36;4.70;;;3.83;;
19004;SDS011;9635;52.078;8.648;2022-08-30T04:39:39;3.80;;;3.25;;
19004;SDS011;9635;52.078;8.648;2022-08-30T04:44:44;2.63;;;1.80;;
19004;SDS011;9635;52.078;8.648;2022-08-30T04:49:47;4.63;;;2.10;;
19004;SDS011;9635;52.078;8.648;2022-08-30T04:54:52;3.90;;;1.83;;
19004;SDS011;9635;52.078;8.648;2022-08-30T04:59:57;9.15;;;2.17;;
19004;SDS011;9635;52.078;8.648;2022-08-30T05:05:00;5.30;;;3.40;;
19004;SDS011;9635;52.078;8.648;2022-08-30T05:10:21;7.00;;;3.97;;
19004;SDS011;9635;52.078;8.648;2022-08-30T05:15:25;5.47;;;4.07;;
19004;SDS011;9635;52.078;8.648;2022-08-30T05:20:28;9.93;;;6.70;;
19004;SDS011;9635;52.078;8.648;2022-08-30T05:25:32;10.82;;;8.55;;
19004;SDS011;9635;52.078;8.648;2022-08-30T05:30:39;10.13;;;6.65;;
19004;SDS011;9635;52.078;8.648;2022-08-30T05:35:42;16.08;;;10.57;;
19004;SDS011;9635;52.078;8.648;2022-08-30T05:40:45;19.98;;;13.30;;
19004;SDS011;9635;52.078;8.648;2022-08-30T05:45:56;19.77;;;14.38;;
19004;SDS011;9635;52.078;8.648;2022-08-30T05:51:00;24.30;;;16.10;;
19004;SDS011;9635;52.078;8.648;2022-08-30T05:56:06;28.40;;;18.20;;
19004;SDS011;9635;52.078;8.648;2022-08-30T06:01:19;27.20;;;18.58;;
19004;SDS011;9635;52.078;8.648;2022-08-30T06:06:26;35.20;;;19.33;;
19004;SDS011;9635;52.078;8.648;2022-08-30T06:11:30;31.05;;;18.70;;
19004;SDS011;9635;52.078;8.648;2022-08-30T06:16:36;27.63;;;19.83;;
19004;SDS011;9635;52.078;8.648;2022-08-30T06:21:40;29.10;;;19.58;;
19004;SDS011;9635;52.078;8.648;2022-08-30T06:26:45;27.23;;;18.67;;
19004;SDS011;9635;52.078;8.648;2022-08-30T06:31:49;29.08;;;19.33;;
19004;SDS011;9635;52.078;8.648;2022-08-30T06:36:52;30.50;;;19.80;;
19004;SDS011;9635;52.078;8.648;2022-08-30T06:41:55;28.42;;;17.45;;
19004;SDS011;9635;52.078;8.648;2022-08-30T06:47:02;27.73;;;16.10;;
19004;SDS011;9635;52.078;8.648;2022-08-30T06:52:06;21.00;;;14.52;;
19004;SDS011;9635;52.078;8.648;2022-08-30T06:57:11;20.70;;;13.52;;
19004;SDS011;9635;52.078;8.648;2022-08-30T07:02:15;20.30;;;13.90;;
19004;SDS011;9635;52.078;8.648;2022-08-30T07:07:18;19.27;;;13.50;;
19004;SDS011;9635;52.078;8.648;2022-08-30T07:12:21;17.48;;;12.70;;
19004;SDS011;9635;52.078;8.648;2022-08-30T07:17:25;17.90;;;12.77;;
19004;SDS011;9635;52.078;8.648;2022-08-30T07:22:45;14.20;;;10.27;;
19004;SDS011;9635;52.078;8.648;2022-08-30T07:27:48;16.10;;;10.35;;
19004;SDS011;9635;52.078;8.648;2022-08-30T07:32:53;14.27;;;9.45;;
19004;SDS011;9635;52.078;8.648;2022-08-30T07:37:56;12.18;;;8.45;;
19004;SDS011;9635;52.078;8.648;2022-08-30T07:42:59;10.27;;;7.65;;
19004;SDS011;9635;52.078;8.648;2022-08-30T07:48:04;8.15;;;6.45;;
19004;SDS011;9635;52.078;8.648;2022-08-30T07:53:07;6.38;;;5.55;;
19004;SDS011;9635;52.078;8.648;2022-08-30T07:58:11;9.68;;;6.30;;
19004;SDS011;9635;52.078;8.648;2022-08-30T08:03:16;8.05;;;5.93;;
19004;SDS011;9635;52.078;8.648;2022-08-30T08:08:19;8.23;;;6.55;;
19004;SDS011;9635;52.078;8.648;2022-08-30T08:13:23;7.45;;;6.57;;
19004;SDS011;9635;52.078;8.648;2022-08-30T08:18:34;8.45;;;6.68;;
19004;SDS011;9635;52.078;8.648;2022-08-30T08:23:37;6.80;;;5.90;;
19004;SDS011;9635;52.078;8.648;2022-08-30T08:28:40;6.47;;;5.22;;
19004;SDS011;9635;52.078;8.648;2022-08-30T08:33:44;5.07;;;4.63;;
19004;SDS011;9635;52.078;8.648;2022-08-30T08:38:47;6.35;;;5.43;;
19004;SDS011;9635;52.078;8.648;2022-08-30T08:43:50;6.30;;;4.57;;
19004;SDS011;9635;52.078;8.648;2022-08-30T08:48:56;5.47;;;4.97;;
19004;SDS011;9635;52.078;8.648;2022-08-30T08:54:03;6.03;;;4.88;;
19004;SDS011;9635;52.078;8.648;2022-08-30T08:59:10;4.60;;;4.10;;
19004;SDS011;9635;52.078;8.648;2022-08-30T09:04:15;5.32;;;4.30;;
19004;SDS011;9635;52.078;8.648;2022-08-30T09:09:22;4.65;;;3.97;;
19004;SDS011;9635;52.078;8.648;2022-08-30T09:14:32;3.90;;;3.60;;
19004;SDS011;9635;52.078;8.648;2022-08-30T09:19:41;4.63;;;4.00;;
19004;SDS011;9635;52.078;8.648;2022-08-30T09:24:46;4.85;;;4.45;;
19004;SDS011;9635;52.078;8.648;2022-08-30T09:29:56;4.57;;;4.13;;
19004;SDS011;9635;52.078;8.648;2022-08-30T09:35:03;4.30;;;3.90;;
19004;SDS011;9635;52.078;8.648;2022-08-30T09:40:12;3.20;;;2.90;;
19004;SDS011;9635;52.078;8.648;2022-08-30T09:45:19;3.85;;;3.45;;
19004;SDS011;9635;52.078;8.648;2022-08-30T09:50:34;4.07;;;2.85;;
19004;SDS011;9635;52.078;8.648;2022-08-30T09:55:48;3.78;;;2.97;;
19004;SDS011;9635;52.078;8.648;2022-08-30T10:01:00;3.92;;;2.42;;
19004;SDS011;9635;52.078;8.648;2022-08-30T10:06:20;2.90;;;2.45;;
19004;SDS011;9635;52.078;8.648;2022-08-30T10:11:31;4.80;;;2.05;;
19004;SDS011;9635;52.078;8.648;2022-08-30T10:16:43;4.87;;;2.00;;
19004;SDS011;9635;52.078;8.648;2022-08-30T10:21:54;2.83;;;1.80;;
19004;SDS011;9635;52.078;8.648;2022-08-30T10:27:05;2.80;;;2.23;;
19004;SDS011;9635;52.078;8.648;2022-08-30T10:32:13;1.60;;;1.48;;
19004;SDS011;9635;52.078;8.648;2022-08-30T10:37:24;2.08;;;1.92;;
19004;SDS011;9635;52.078;8.648;2022-08-30T10:42:29;3.00;;;1.88;;
19004;SDS011;9635;52.078;8.648;2022-08-30T10:52:48;2.90;;;1.92;;
19004;SDS011;9635;52.078;8.648;2022-08-30T10:57:58;3.33;;;2.53;;
19004;SDS011;9635;52.078;8.648;2022-08-30T11:03:18;3.30;;;1.40;;
19004;SDS011;9635;52.078;8.648;2022-08-30T11:08:48;2.10;;;2.00;;
19004;SDS011;9635;52.078;8.648;2022-08-30T11:14:02;1.90;;;1.73;;
19004;SDS011;9635;52.078;8.648;2022-08-30T11:19:12;3.42;;;1.90;;
19004;SDS011;9635;52.078;8.648;2022-08-30T11:24:22;2.80;;;2.20;;
19004;SDS011;9635;52.078;8.648;2022-08-30T11:29:28;2.17;;;1.70;;
19004;SDS011;9635;52.078;8.648;2022-08-30T11:40:03;2.67;;;2.45;;
19004;SDS011;9635;52.078;8.648;2022-08-30T11:50:53;3.20;;;2.90;;
19004;SDS011;9635;52.078;8.648;2022-08-30T11:56:04;5.63;;;3.10;;
19004;SDS011;9635;52.078;8.648;2022-08-30T12:01:17;3.40;;;3.10;;
19004;SDS011;9635;52.078;8.648;2022-08-30T12:06:52;3.50;;;3.20;;
19004;SDS011;9635;52.078;8.648;2022-08-30T12:12:02;3.78;;;3.47;;
19004;SDS011;9635;52.078;8.648;2022-08-30T12:17:11;4.93;;;3.20;;
19004;SDS011;9635;52.078;8.648;2022-08-30T12:22:37;4.15;;;3.85;;
19004;SDS011;9635;52.078;8.648;2022-08-30T12:27:42;4.72;;;3.20;;
19004;SDS011;9635;52.078;8.648;2022-08-30T12:32:45;4.22;;;3.55;;
19004;SDS011;9635;52.078;8.648;2022-08-30T12:37:55;3.55;;;3.25;;
19004;SDS011;9635;52.078;8.648;2022-08-30T12:43:03;3.40;;;3.10;;
19004;SDS011;9635;52.078;8.648;2022-08-30T12:48:08;4.28;;;3.17;;
19004;SDS011;9635;52.078;8.648;2022-08-30T12:53:20;3.08;;;2.47;;
19004;SDS011;9635;52.078;8.648;2022-08-30T12:58:34;3.13;;;2.70;;
19004;SDS011;9635;52.078;8.648;2022-08-30T13:03:39;3.58;;;2.50;;
19004;SDS011;9635;52.078;8.648;2022-08-30T13:08:47;3.33;;;2.90;;
19004;SDS011;9635;52.078;8.648;2022-08-30T13:13:55;2.97;;;2.70;;
19004;SDS011;9635;52.078;8.648;2022-08-30T13:19:33;4.07;;;2.80;;
19004;SDS011;9635;52.078;8.648;2022-08-30T13:24:37;2.75;;;2.55;;
19004;SDS011;9635;52.078;8.648;2022-08-30T13:29:42;2.80;;;2.30;;
19004;SDS011;9635;52.078;8.648;2022-08-30T13:34:46;4.03;;;2.78;;
19004;SDS011;9635;52.078;8.648;2022-08-30T13:39:49;2.92;;;2.63;;
19004;SDS011;9635;52.078;8.648;2022-08-30T13:44:52;4.60;;;2.75;;
19004;SDS011;9635;52.078;8.648;2022-08-30T13:49:56;4.50;;;2.30;;
19004;SDS011;9635;52.078;8.648;2022-08-30T13:54:59;2.97;;;2.47;;
19004;SDS011;9635;52.078;8.648;2022-08-30T14:00:04;3.58;;;2.67;;
19004;SDS011;9635;52.078;8.648;2022-08-30T14:05:14;3.83;;;2.70;;
19004;SDS011;9635;52.078;8.648;2022-08-30T14:10:37;4.78;;;3.20;;
19004;SDS011;9635;52.078;8.648;2022-08-30T14:15:48;3.97;;;3.08;;
19004;SDS011;9635;52.078;8.648;2022-08-30T14:21:13;3.42;;;3.13;;
19004;SDS011;9635;52.078;8.648;2022-08-30T14:26:16;3.00;;;2.70;;
19004;SDS011;9635;52.078;8.648;2022-08-30T14:31:22;3.88;;;2.60;;
19004;SDS011;9635;52.078;8.648;2022-08-30T14:36:27;5.45;;;3.00;;
19004;SDS011;9635;52.078;8.648;2022-08-30T14:41:31;2.63;;;2.42;;
19004;SDS011;9635;52.078;8.648;2022-08-30T14:46:34;3.40;;;2.42;;
19004;SDS011;9635;52.078;8.648;2022-08-30T14:51:39;4.10;;;3.30;;
19004;SDS011;9635;52.078;8.648;2022-08-30T14:56:43;3.30;;;3.00;;
19004;SDS011;9635;52.078;8.648;2022-08-30T15:01:46;4.72;;;3.08;;
19004;SDS011;9635;52.078;8.648;2022-08-30T15:06:50;6.32;;;3.45;;
19004;SDS011;9635;52.078;8.648;2022-08-30T15:11:54;3.80;;;3.00;;
19004;SDS011;9635;52.078;8.648;2022-08-30T15:16:59;3.30;;;2.88;;
19004;SDS011;9635;52.078;8.648;2022-08-30T15:22:05;4.35;;;3.05;;
19004;SDS011;9635;52.078;8.648;2022-08-30T15:27:09;4.20;;;3.35;;
19004;SDS011;9635;52.078;8.648;2022-08-30T15:32:12;4.28;;;2.85;;
19004;SDS011;9635;52.078;8.648;2022-08-30T15:37:16;3.40;;;3.10;;
19004;SDS011;9635;52.078;8.648;2022-08-30T15:42:22;4.30;;;2.95;;
19004;SDS011;9635;52.078;8.648;2022-08-30T15:47:25;4.20;;;3.28;;
19004;SDS011;9635;52.078;8.648;2022-08-30T15:52:29;4.38;;;2.63;;
19004;SDS011;9635;52.078;8.648;2022-08-30T15:57:32;3.85;;;3.22;;
19004;SDS011;9635;52.078;8.648;2022-08-30T16:02:35;4.57;;;2.90;;
19004;SDS011;9635;52.078;8.648;2022-08-30T16:07:40;3.35;;;2.45;;
19004;SDS011;9635;52.078;8.648;2022-08-30T16:12:45;3.92;;;2.50;;
19004;SDS011;9635;52.078;8.648;2022-08-30T16:17:48;5.18;;;2.83;;
19004;SDS011;9635;52.078;8.648;2022-08-30T16:22:52;2.55;;;2.35;;
19004;SDS011;9635;52.078;8.648;2022-08-30T16:27:55;3.45;;;2.38;;
19004;SDS011;9635;52.078;8.648;2022-08-30T16:32:58;2.85;;;2.13;;
19004;SDS011;9635;52.078;8.648;2022-08-30T16:38:02;3.75;;;2.17;;
19004;SDS011;9635;52.078;8.648;2022-08-30T16:43:05;3.05;;;2.60;;
19004;SDS011;9635;52.078;8.648;2022-08-30T16:48:08;3.65;;;2.58;;
19004;SDS011;9635;52.078;8.648;2022-08-30T16:53:13;2.45;;;2.15;;
19004;SDS011;9635;52.078;8.648;2022-08-30T16:58:16;2.30;;;1.85;;
19004;SDS011;9635;52.078;8.648;2022-08-30T17:03:22;2.15;;;1.77;;
19004;SDS011;9635;52.078;8.648;2022-08-30T17:08:26;1.90;;;1.60;;
19004;SDS011;9635;52.078;8.648;2022-08-30T17:13:31;5.40;;;2.20;;
19004;SDS011;9635;52.078;8.648;2022-08-30T17:18:35;2.13;;;1.90;;
19004;SDS011;9635;52.078;8.648;2022-08-30T17:23:40;4.78;;;1.67;;
19004;SDS011;9635;52.078;8.648;2022-08-30T17:28:45;4.68;;;1.38;;
19004;SDS011;9635;52.078;8.648;2022-08-30T17:33:48;3.42;;;1.98;;
19004;SDS011;9635;52.078;8.648;2022-08-30T17:38:52;2.78;;;1.40;;
19004;SDS011;9635;52.078;8.648;2022-08-30T17:43:55;3.03;;;2.22;;
19004;SDS011;9635;52.078;8.648;2022-08-30T17:48:58;2.53;;;1.65;;
19004;SDS011;9635;52.078;8.648;2022-08-30T17:54:03;3.42;;;1.63;;
19004;SDS011;9635;52.078;8.648;2022-08-30T17:59:06;2.42;;;1.52;;
19004;SDS011;9635;52.078;8.648;2022-08-30T18:04:16;6.55;;;1.30;;
19004;SDS011;9635;52.078;8.648;2022-08-30T18:09:22;2.03;;;1.60;;
19004;SDS011;9635;52.078;8.648;2022-08-30T18:14:25;4.93;;;1.80;;
19004;SDS011;9635;52.078;8.648;2022-08-30T18:19:28;5.85;;;1.80;;
19004;SDS011;9635;52.078;8.648;2022-08-30T18:24:33;3.00;;;1.92;;
19004;SDS011;9635;52.078;8.648;2022-08-30T18:29:36;2.58;;;1.67;;
19004;SDS011;9635;52.078;8.648;2022-08-30T18:34:39;5.43;;;1.98;;
19004;SDS011;9635;52.078;8.648;2022-08-30T18:39:44;3.78;;;2.15;;
19004;SDS011;9635;52.078;8.648;2022-08-30T18:44:50;3.25;;;1.85;;
19004;SDS011;9635;52.078;8.648;2022-08-30T18:49:53;3.15;;;1.88;;
19004;SDS011;9635;52.078;8.648;2022-08-30T18:54:57;3.17;;;1.73;;
19004;SDS011;9635;52.078;8.648;2022-08-30T19:00:00;2.33;;;1.60;;
19004;SDS011;9635;52.078;8.648;2022-08-30T19:05:05;3.47;;;1.52;;
19004;SDS011;9635;52.078;8.648;2022-08-30T19:10:10;2.40;;;1.20;;
19004;SDS011;9635;52.078;8.648;2022-08-30T19:15:14;3.30;;;1.50;;
19004;SDS011;9635;52.078;8.648;2022-08-30T19:20:19;2.10;;;0.80;;
19004;SDS011;9635;52.078;8.648;2022-08-30T19:25:24;1.75;;;0.93;;
19004;SDS011;9635;52.078;8.648;2022-08-30T19:30:29;0.93;;;0.88;;
19004;SDS011;9635;52.078;8.648;2022-08-30T19:35:32;1.40;;;0.90;;
19004;SDS011;9635;52.078;8.648;2022-08-30T19:40:36;1.98;;;1.02;;
19004;SDS011;9635;52.078;8.648;2022-08-30T19:45:39;2.22;;;1.13;;
19004;SDS011;9635;52.078;8.648;2022-08-30T19:50:42;1.35;;;0.80;;
19004;SDS011;9635;52.078;8.648;2022-08-30T19:55:46;2.13;;;0.90;;
19004;SDS011;9635;52.078;8.648;2022-08-30T20:00:49;2.60;;;1.27;;
19004;SDS011;9635;52.078;8.648;2022-08-30T20:06:12;0.60;;;0.60;;
19004;SDS011;9635;52.078;8.648;2022-08-30T20:11:18;0.65;;;0.55;;
19004;SDS011;9635;52.078;8.648;2022-08-30T20:16:23;1.42;;;1.00;;
19004;SDS011;9635;52.078;8.648;2022-08-30T20:21:46;2.42;;;0.80;;
19004;SDS011;9635;52.078;8.648;2022-08-30T20:26:51;0.80;;;0.50;;
19004;SDS011;9635;52.078;8.648;2022-08-30T20:31:54;1.13;;;0.80;;
19004;SDS011;9635;52.078;8.648;2022-08-30T20:36:57;0.88;;;0.70;;
19004;SDS011;9635;52.078;8.648;2022-08-30T20:42:02;2.67;;;0.75;;
19004;SDS011;9635;52.078;8.648;2022-08-30T20:47:05;2.45;;;0.75;;
19004;SDS011;9635;52.078;8.648;2022-08-30T20:52:08;2.45;;;0.90;;
19004;SDS011;9635;52.078;8.648;2022-08-30T20:57:12;2.47;;;1.00;;
19004;SDS011;9635;52.078;8.648;2022-08-30T21:02:15;1.45;;;0.90;;
19004;SDS011;9635;52.078;8.648;2022-08-30T21:07:18;1.33;;;0.90;;
19004;SDS011;9635;52.078;8.648;2022-08-30T21:12:22;4.97;;;1.00;;
19004;SDS011;9635;52.078;8.648;2022-08-30T21:17:25;3.95;;;0.90;;
19004;SDS011;9635;52.078;8.648;2022-08-30T21:22:30;1.10;;;0.82;;
19004;SDS011;9635;52.078;8.648;2022-08-30T21:27:34;1.70;;;0.98;;
19004;SDS011;9635;52.078;8.648;2022-08-30T21:32:37;2.78;;;1.10;;
19004;SDS011;9635;52.078;8.648;2022-08-30T21:37:40;1.88;;;0.80;;
19004;SDS011;9635;52.078;8.648;2022-08-30T21:42:47;1.70;;;0.80;;
19004;SDS011;9635;52.078;8.648;2022-08-30T21:47:50;2.47;;;0.88;;
19004;SDS011;9635;52.078;8.648;2022-08-30T21:52:52;2.05;;;0.80;;
19004;SDS011;9635;52.078;8.648;2022-08-30T21:57:57;3.47;;;0.75;;
19004;SDS011;9635;52.078;8.648;2022-08-30T22:03:00;1.30;;;1.02;;
19004;SDS011;9635;52.078;8.648;2022-08-30T22:08:02;1.55;;;0.90;;
19004;SDS011;9635;52.078;8.648;2022-08-30T22:13:07;1.02;;;0.93;;
19004;SDS011;9635;52.078;8.648;2022-08-30T22:18:13;2.45;;;1.00;;
19004;SDS011;9635;52.078;8.648;2022-08-30T22:23:18;2.40;;;0.90;;
19004;SDS011;9635;52.078;8.648;2022-08-30T22:28:22;1.90;;;1.20;;
19004;SDS011;9635;52.078;8.648;2022-08-30T22:33:25;0.85;;;0.85;;
19004;SDS011;9635;52.078;8.648;2022-08-30T22:38:28;1.52;;;0.80;;
19004;SDS011;9635;52.078;8.648;2022-08-30T22:43:32;1.38;;;0.98;;
19004;SDS011;9635;52.078;8.648;2022-08-30T22:48:36;1.92;;;0.90;;
19004;SDS011;9635;52.078;8.648;2022-08-30T22:53:41;0.93;;;0.85;;
19004;SDS011;9635;52.078;8.648;2022-08-30T22:58:46;2.20;;;0.85;;
19004;SDS011;9635;52.078;8.648;2022-08-30T23:03:50;1.10;;;1.00;;
19004;SDS011;9635;52.078;8.648;2022-08-30T23:08:53;1.85;;;1.00;;
19004;SDS011;9635;52.078;8.648;2022-08-30T23:13:57;2.35;;;1.30;;
19004;SDS011;9635;52.078;8.648;2022-08-30T23:19:00;1.77;;;1.17;;
19004;SDS011;9635;52.078;8.648;2022-08-30T23:24:03;3.13;;;1.40;;
19004;SDS011;9635;52.078;8.648;2022-08-30T23:29:26;1.52;;;1.10;;
19004;SDS011;9635;52.078;8.648;2022-08-30T23:34:46;2.60;;;1.40;;
19004;SDS011;9635;52.078;8.648;2022-08-30T23:40:07;2.58;;;1.10;;
19004;SDS011;9635;52.078;8.648;2022-08-30T23:45:30;1.03;;;1.00;;
19004;SDS011;9635;52.078;8.648;2022-08-30T23:50:50;2.55;;;1.30;;
19004;SDS011;9635;52.078;8.648;2022-08-30T23:56:22;1.63;;;1.02;;
